createdAt,value
2023-05-18T00:01:41.037Z,102845.00
2023-05-18T00:04:10.364Z,102838.00
2023-05-18T00:06:37.297Z,102841.00
2023-05-18T00:09:04.111Z,102844.00
2023-05-18T00:11:31.070Z,102847.00
2023-05-18T00:14:00.060Z,102842.00
2023-05-18T00:16:27.004Z,102843.00
2023-05-18T00:18:54.895Z,102832.00
2023-05-18T00:21:30.776Z,102836.00
2023-05-18T00:23:58.626Z,102843.00
2023-05-18T00:26:26.839Z,102840.00
2023-05-18T00:28:53.607Z,102845.00
2023-05-18T00:31:20.393Z,102837.00
2023-05-18T00:33:49.447Z,102840.00
2023-05-18T00:36:18.772Z,102844.00
2023-05-18T00:38:45.852Z,102843.00
2023-05-18T00:41:12.902Z,102841.00
2023-05-18T00:43:42.508Z,102839.00
2023-05-18T00:46:09.233Z,102836.00
2023-05-18T00:48:36.358Z,102837.00
2023-05-18T00:51:06.163Z,102838.00
2023-05-18T00:53:33.634Z,102844.00
2023-05-18T00:56:00.553Z,102839.00
2023-05-18T00:58:27.293Z,102844.00
2023-05-18T01:00:54.209Z,102836.00
2023-05-18T01:03:21.501Z,102828.00
2023-05-18T01:05:50.258Z,102836.00
2023-05-18T01:08:17.933Z,102831.00
2023-05-18T01:10:52.782Z,102834.00
2023-05-18T01:13:37.425Z,102834.00
2023-05-18T01:16:10.001Z,102839.00
2023-05-18T01:18:50.768Z,102842.00
2023-05-18T01:22:05.187Z,102835.00
2023-05-18T01:24:42.800Z,102833.00
2023-05-18T01:27:12.090Z,102833.00
2023-05-18T01:29:39.145Z,102830.00
2023-05-18T01:32:08.041Z,102828.00
2023-05-18T01:34:35.169Z,102839.00
2023-05-18T01:37:04.293Z,102830.00
2023-05-18T01:39:31.257Z,102832.00
2023-05-18T01:42:06.917Z,102832.00
2023-05-18T01:44:47.343Z,102839.00
2023-05-18T01:47:18.441Z,102839.00
2023-05-18T01:49:56.897Z,102835.00
2023-05-18T01:52:44.682Z,102827.00
2023-05-18T01:55:13.852Z,102839.00
2023-05-18T01:57:42.862Z,102837.00
2023-05-18T02:00:13.186Z,102834.00
2023-05-18T02:02:42.293Z,102842.00
2023-05-18T02:05:12.545Z,102842.00
2023-05-18T02:07:40.364Z,102848.00
2023-05-18T02:10:08.078Z,102848.00
2023-05-18T02:12:34.797Z,102840.00
2023-05-18T02:15:05.601Z,102838.00
2023-05-18T02:17:38.235Z,102838.00
2023-05-18T02:20:09.452Z,102842.00
2023-05-18T02:22:39.308Z,102838.00
2023-05-18T02:25:07.409Z,102833.00
2023-05-18T02:27:36.130Z,102829.00
2023-05-18T02:30:09.108Z,102834.00
2023-05-18T02:32:39.222Z,102835.00
2023-05-18T02:35:07.027Z,102824.00
2023-05-18T02:37:40.160Z,102825.00
2023-05-18T02:40:17.228Z,102825.00
2023-05-18T02:42:43.884Z,102824.00
2023-05-18T02:45:11.357Z,102820.00
2023-05-18T02:47:44.160Z,102822.00
2023-05-18T02:50:11.392Z,102818.00
2023-05-18T02:52:38.802Z,102828.00
2023-05-18T02:55:08.533Z,102822.00
2023-05-18T02:57:35.321Z,102822.00
2023-05-18T03:00:02.074Z,102825.00
2023-05-18T03:02:28.933Z,102825.00
2023-05-18T03:04:57.508Z,102828.00
2023-05-18T03:07:24.654Z,102834.00
2023-05-18T03:09:54.061Z,102830.00
2023-05-18T03:12:20.726Z,102830.00
2023-05-18T03:14:47.554Z,102825.00
2023-05-18T03:17:16.781Z,102815.00
2023-05-18T03:19:43.685Z,102818.00
2023-05-18T03:22:10.596Z,102826.00
2023-05-18T03:24:40.714Z,102822.00
2023-05-18T03:27:07.694Z,102825.00
2023-05-18T03:29:34.758Z,102820.00
2023-05-18T03:32:01.551Z,102825.00
2023-05-18T03:34:30.641Z,102818.00
2023-05-18T03:36:58.224Z,102823.00
2023-05-18T03:39:25.035Z,102820.00
2023-05-18T03:41:52.244Z,102826.00
2023-05-18T03:44:18.979Z,102820.00
2023-05-18T03:46:50.892Z,102829.00
2023-05-18T03:49:17.749Z,102826.00
2023-05-18T03:51:44.597Z,102822.00
2023-05-18T03:54:11.488Z,102822.00
2023-05-18T03:56:38.251Z,102825.00
2023-05-18T03:59:05.241Z,102830.00
2023-05-18T04:01:33.008Z,102818.00
2023-05-18T04:04:00.845Z,102817.00
2023-05-18T04:06:27.673Z,102818.00
2023-05-18T04:08:57.147Z,102825.00
2023-05-18T04:11:23.841Z,102818.00
2023-05-18T04:13:52.996Z,102820.00
2023-05-18T04:16:19.882Z,102835.00
2023-05-18T04:18:49.247Z,102824.00
2023-05-18T04:21:16.258Z,102825.00
2023-05-18T04:23:43.068Z,102819.00
2023-05-18T04:26:09.795Z,102818.00
2023-05-18T04:28:37.813Z,102818.00
2023-05-18T04:31:04.731Z,102820.00
2023-05-18T04:33:32.869Z,102821.00
2023-05-18T04:36:05.013Z,102827.00
2023-05-18T04:38:34.796Z,102828.00
2023-05-18T04:41:07.711Z,102828.00
2023-05-18T04:43:37.288Z,102831.00
2023-05-18T04:46:04.222Z,102832.00
2023-05-18T04:48:32.144Z,102825.00
2023-05-18T04:50:59.089Z,102830.00
2023-05-18T04:53:27.556Z,102832.00
2023-05-18T04:55:54.674Z,102831.00
2023-05-18T04:58:21.323Z,102826.00
2023-05-18T05:00:48.057Z,102837.00
2023-05-18T05:03:14.934Z,102834.00
2023-05-18T05:05:41.803Z,102839.00
2023-05-18T05:08:11.836Z,102842.00
2023-05-18T05:10:40.738Z,102842.00
2023-05-18T05:13:07.572Z,102845.00
2023-05-18T05:15:39.087Z,102849.00
2023-05-18T05:18:06.051Z,102842.00
2023-05-18T05:20:32.822Z,102834.00
2023-05-18T05:22:59.649Z,102841.00
2023-05-18T05:25:26.499Z,102842.00
2023-05-18T05:27:53.241Z,102841.00
2023-05-18T05:30:22.217Z,102850.00
2023-05-18T05:32:49.036Z,102844.00
2023-05-18T05:35:15.986Z,102837.00
2023-05-18T05:37:44.915Z,102842.00
2023-05-18T05:40:11.987Z,102851.00
2023-05-18T05:42:41.838Z,102852.00
2023-05-18T05:45:11.189Z,102851.00
2023-05-18T05:47:41.063Z,102855.00
2023-05-18T05:50:08.132Z,102854.00
2023-05-18T05:52:34.927Z,102862.00
2023-05-18T05:55:01.675Z,102860.00
2023-05-18T05:57:28.369Z,102865.00
2023-05-18T05:59:55.024Z,102856.00
2023-05-18T06:02:21.733Z,102862.00
2023-05-18T06:04:48.640Z,102859.00
2023-05-18T06:07:15.384Z,102864.00
2023-05-18T06:09:42.108Z,102863.00
2023-05-18T06:12:09.966Z,102866.00
2023-05-18T06:14:38.961Z,102871.00
2023-05-18T06:17:08.478Z,102865.00
2023-05-18T06:19:35.267Z,102870.00
2023-05-18T06:22:02.119Z,102875.00
2023-05-18T06:24:28.850Z,102874.00
2023-05-18T06:26:55.682Z,102871.00
2023-05-18T06:29:23.050Z,102877.00
2023-05-18T06:31:49.876Z,102878.00
2023-05-18T06:34:17.131Z,102876.00
2023-05-18T06:36:43.787Z,102868.00
2023-05-18T06:39:13.053Z,102883.00
2023-05-18T06:41:40.056Z,102885.00
2023-05-18T06:44:06.896Z,102884.00
2023-05-18T06:46:36.020Z,102886.00
2023-05-18T06:49:02.946Z,102889.00
2023-05-18T06:51:29.784Z,102889.00
2023-05-18T06:53:56.620Z,102905.00
2023-05-18T06:56:24.008Z,102900.00
2023-05-18T06:58:50.798Z,102902.00
2023-05-18T07:01:19.980Z,102898.00
2023-05-18T07:03:47.158Z,102899.00
2023-05-18T07:06:16.110Z,102901.00
2023-05-18T07:08:44.492Z,102884.00
2023-05-18T07:11:11.350Z,102900.00
2023-05-18T07:13:38.083Z,102902.00
2023-05-18T07:16:07.625Z,102900.00
2023-05-18T07:18:34.785Z,102905.00
2023-05-18T07:21:01.549Z,102891.00
2023-05-18T07:23:28.760Z,102888.00
2023-05-18T07:25:55.592Z,102890.00
2023-05-18T07:28:22.311Z,102895.00
2023-05-18T07:30:51.227Z,102891.00
2023-05-18T07:33:20.743Z,102883.00
2023-05-18T07:35:47.621Z,102898.00
2023-05-18T07:38:16.742Z,102895.00
2023-05-18T07:40:43.682Z,102895.00
2023-05-18T07:43:12.567Z,102885.00
2023-05-18T07:45:39.195Z,102887.00
2023-05-18T07:48:08.231Z,102889.00
2023-05-18T07:50:35.861Z,102881.00
2023-05-18T07:53:04.907Z,102890.00
2023-05-18T07:55:32.160Z,102884.00
2023-05-18T07:58:01.100Z,102889.00
2023-05-18T08:00:28.148Z,102890.00
2023-05-18T08:02:55.036Z,102885.00
2023-05-18T08:05:23.975Z,102889.00
2023-05-18T08:07:51.062Z,102884.00
2023-05-18T08:10:17.670Z,102899.00
2023-05-18T08:12:49.084Z,102899.00
2023-05-18T08:15:15.833Z,102896.00
2023-05-18T08:17:44.828Z,102890.00
2023-05-18T08:20:11.986Z,102887.00
2023-05-18T08:22:38.805Z,102891.00
2023-05-18T08:25:05.730Z,102899.00
2023-05-18T08:27:34.769Z,102891.00
2023-05-18T08:30:06.991Z,102884.00
2023-05-18T08:32:37.031Z,102890.00
2023-05-18T08:35:04.962Z,102895.00
2023-05-18T08:37:34.367Z,102896.00
2023-05-18T08:40:01.141Z,102890.00
2023-05-18T08:42:49.328Z,102888.00
2023-05-18T08:45:32.749Z,102878.00
2023-05-18T08:48:01.709Z,102887.00
2023-05-18T08:50:31.884Z,102878.00
2023-05-18T08:53:02.578Z,102880.00
2023-05-18T08:55:34.862Z,102879.00
2023-05-18T08:58:05.454Z,102878.00
2023-05-18T09:00:33.072Z,102882.00
2023-05-18T09:03:01.067Z,102884.00
2023-05-18T09:05:31.296Z,102890.00
2023-05-18T09:07:58.406Z,102882.00
2023-05-18T09:10:26.231Z,102898.00
2023-05-18T09:12:55.350Z,102889.00
2023-05-18T09:15:22.111Z,102877.00
2023-05-18T09:17:49.145Z,102895.00
2023-05-18T09:20:17.069Z,102891.00
2023-05-18T09:22:43.994Z,102882.00
2023-05-18T09:25:11.013Z,102886.00
2023-05-18T09:27:38.560Z,102879.00
2023-05-18T09:30:10.153Z,102874.00
2023-05-18T09:32:37.008Z,102875.00
2023-05-18T09:35:07.736Z,102873.00
2023-05-18T09:37:34.996Z,102878.00
2023-05-18T09:40:05.447Z,102881.00
2023-05-18T09:42:40.622Z,102883.00
2023-05-18T09:45:23.723Z,102876.00
2023-05-18T09:47:51.413Z,102869.00
2023-05-18T09:50:25.192Z,102865.00
2023-05-18T09:52:54.593Z,102863.00
2023-05-18T09:55:21.326Z,102877.00
2023-05-18T09:57:51.884Z,102873.00
2023-05-18T10:00:21.267Z,102863.00
2023-05-18T10:02:52.990Z,102859.00
2023-05-18T10:05:20.898Z,102854.00
2023-05-18T10:07:51.474Z,102854.00
2023-05-18T10:10:20.885Z,102858.00
2023-05-18T10:12:48.528Z,102862.00
2023-05-18T10:15:21.456Z,102866.00
2023-05-18T10:17:52.526Z,102856.00
2023-05-18T10:20:21.276Z,102858.00
2023-05-18T10:22:49.370Z,102853.00
2023-05-18T10:25:21.820Z,102852.00
2023-05-18T10:27:58.691Z,102843.00
2023-05-18T10:30:26.915Z,102850.00
2023-05-18T10:32:58.082Z,102851.00
2023-05-18T10:35:28.501Z,102843.00
2023-05-18T10:37:57.628Z,102850.00
2023-05-18T10:40:24.769Z,102847.00
2023-05-18T10:42:53.596Z,102845.00
2023-05-18T10:45:20.877Z,102838.00
2023-05-18T10:47:54.441Z,102841.00
2023-05-18T10:50:23.876Z,102842.00
2023-05-18T10:52:51.817Z,102841.00
2023-05-18T10:55:19.102Z,102842.00
2023-05-18T10:58:07.494Z,102840.00
2023-05-18T11:00:36.810Z,102836.00
2023-05-18T11:03:08.076Z,102829.00
2023-05-18T11:05:35.108Z,102849.00
2023-05-18T11:08:05.598Z,102839.00
2023-05-18T11:10:47.328Z,102829.00
2023-05-18T11:13:16.585Z,102827.00
2023-05-18T11:15:55.818Z,102823.00
2023-05-18T11:18:42.399Z,102819.00
2023-05-18T11:21:41.504Z,102821.00
2023-05-18T11:24:29.926Z,102831.00
2023-05-18T11:27:06.786Z,102820.00
2023-05-18T11:29:42.184Z,102819.00
2023-05-18T11:32:30.336Z,102830.00
2023-05-18T11:34:57.468Z,102828.00
2023-05-18T11:37:39.139Z,102825.00
2023-05-18T11:40:11.440Z,102832.00
2023-05-18T11:42:41.448Z,102825.00
2023-05-18T11:45:12.529Z,102825.00
2023-05-18T11:47:42.003Z,102817.00
2023-05-18T11:50:13.123Z,102820.00
2023-05-18T11:52:51.854Z,102822.00
2023-05-18T11:55:20.195Z,102818.00
2023-05-18T11:57:53.240Z,102810.00
2023-05-18T12:00:21.235Z,102823.00
2023-05-18T12:02:52.808Z,102814.00
2023-05-18T12:05:20.069Z,102807.00
2023-05-18T12:07:55.319Z,102804.00
2023-05-18T12:10:23.070Z,102804.00
2023-05-18T12:12:52.363Z,102809.00
2023-05-18T12:15:23.018Z,102801.00
2023-05-18T12:17:51.176Z,102805.00
2023-05-18T12:20:22.450Z,102806.00
2023-05-18T12:22:56.928Z,102808.00
2023-05-18T12:25:26.899Z,102805.00
2023-05-18T12:27:58.963Z,102806.00
2023-05-18T12:30:37.620Z,102810.00
2023-05-18T12:33:08.959Z,102808.00
2023-05-18T12:35:39.574Z,102798.00
2023-05-18T12:38:08.067Z,102804.00
2023-05-18T12:40:46.767Z,102800.00
2023-05-18T12:43:13.649Z,102805.00
2023-05-18T12:45:43.148Z,102807.00
2023-05-18T12:48:12.181Z,102809.00
2023-05-18T12:50:53.120Z,102810.00
2023-05-18T12:53:20.339Z,102813.00
2023-05-18T12:55:59.718Z,102806.00
2023-05-18T12:58:26.585Z,102810.00
2023-05-18T13:00:53.222Z,102800.00
2023-05-18T13:03:25.128Z,102803.00
2023-05-18T13:06:06.251Z,102801.00
2023-05-18T13:08:34.166Z,102796.00
2023-05-18T13:11:13.422Z,102799.00
2023-05-18T13:13:58.546Z,102788.00
2023-05-18T13:16:25.807Z,102794.00
2023-05-18T13:19:01.107Z,102786.00
2023-05-18T13:21:29.789Z,102798.00
2023-05-18T13:23:56.723Z,102793.00
2023-05-18T13:26:26.891Z,102789.00
2023-05-18T13:28:56.082Z,102797.00
2023-05-18T13:31:23.186Z,102799.00
2023-05-18T13:33:50.688Z,102790.00
2023-05-18T13:36:18.558Z,102789.00
2023-05-18T13:38:45.259Z,102796.00
2023-05-18T13:41:14.905Z,102777.00
2023-05-18T13:43:42.656Z,102784.00
2023-05-18T13:46:09.791Z,102783.00
2023-05-18T13:48:36.434Z,102782.00
2023-05-18T13:51:03.121Z,102781.00
2023-05-18T13:53:29.884Z,102782.00
2023-05-18T13:55:59.106Z,102776.00
2023-05-18T13:58:25.847Z,102777.00
2023-05-18T14:00:53.968Z,102769.00
2023-05-18T14:03:21.077Z,102774.00
2023-05-18T14:05:47.855Z,102774.00
2023-05-18T14:08:14.760Z,102772.00
2023-05-18T14:10:41.764Z,102772.00
2023-05-18T14:13:11.041Z,102772.00
2023-05-18T14:15:37.784Z,102771.00
2023-05-18T14:18:07.789Z,102768.00
2023-05-18T14:20:36.556Z,102758.00
2023-05-18T14:23:04.894Z,102760.00
2023-05-18T14:25:32.451Z,102762.00
2023-05-18T14:27:59.200Z,102764.00
2023-05-18T14:30:26.060Z,102765.00
2023-05-18T14:32:55.304Z,102751.00
2023-05-18T14:35:21.967Z,102751.00
2023-05-18T14:37:48.564Z,102753.00
2023-05-18T14:40:15.381Z,102750.00
2023-05-18T14:42:41.959Z,102751.00
2023-05-18T14:45:09.420Z,102750.00
2023-05-18T14:47:36.077Z,102750.00
2023-05-18T14:50:03.014Z,102754.00
2023-05-18T14:52:29.681Z,102748.00
2023-05-18T14:54:56.573Z,102746.00
2023-05-18T14:57:24.802Z,102739.00
2023-05-18T14:59:53.226Z,102752.00
2023-05-18T15:02:19.860Z,102743.00
2023-05-18T15:04:46.528Z,102743.00
2023-05-18T15:07:15.504Z,102748.00
2023-05-18T15:09:44.572Z,102744.00
2023-05-18T15:12:13.703Z,102746.00
2023-05-18T15:14:40.548Z,102740.00
2023-05-18T15:17:08.682Z,102750.00
2023-05-18T15:19:36.141Z,102751.00
2023-05-18T15:22:02.747Z,102742.00
2023-05-18T15:24:29.566Z,102747.00
2023-05-18T15:26:56.652Z,102750.00
2023-05-18T15:29:25.623Z,102735.00
2023-05-18T15:31:55.257Z,102747.00
2023-05-18T15:34:21.925Z,102744.00
2023-05-18T15:36:51.262Z,102738.00
2023-05-18T15:39:17.893Z,102739.00
2023-05-18T15:41:54.542Z,102739.00
2023-05-18T15:44:23.789Z,102740.00
2023-05-18T15:46:50.825Z,102734.00
2023-05-18T15:49:18.793Z,102734.00
2023-05-18T15:51:45.659Z,102727.00
2023-05-18T15:54:13.022Z,102730.00
2023-05-18T15:56:39.842Z,102722.00
2023-05-18T15:59:08.320Z,102729.00
2023-05-18T16:01:35.751Z,102723.00
2023-05-18T16:04:03.048Z,102722.00
2023-05-18T16:06:29.879Z,102720.00
2023-05-18T16:08:56.738Z,102718.00
2023-05-18T16:11:23.498Z,102721.00
2023-05-18T16:13:54.163Z,102723.00
2023-05-18T16:16:22.519Z,102723.00
2023-05-18T16:18:50.126Z,102719.00
2023-05-18T16:21:17.499Z,102717.00
2023-05-18T16:23:46.139Z,102715.00
2023-05-18T16:26:13.549Z,102717.00
2023-05-18T16:28:40.634Z,102702.00
2023-05-18T16:31:12.201Z,102713.00
2023-05-18T16:33:39.112Z,102710.00
2023-05-18T16:36:06.727Z,102698.00
2023-05-18T16:38:35.854Z,102713.00
2023-05-18T16:41:03.238Z,102720.00
2023-05-18T16:43:30.645Z,102711.00
2023-05-18T16:45:57.708Z,102713.00
2023-05-18T16:48:24.525Z,102716.00
2023-05-18T16:50:51.297Z,102710.00
2023-05-18T16:53:20.260Z,102721.00
2023-05-18T16:55:46.952Z,102712.00
2023-05-18T16:58:13.579Z,102715.00
2023-05-18T17:00:40.198Z,102714.00
2023-05-18T17:03:07.000Z,102706.00
2023-05-18T17:05:39.090Z,102714.00
2023-05-18T17:08:05.981Z,102717.00
2023-05-18T17:10:35.617Z,102712.00
2023-05-18T17:13:02.583Z,102717.00
2023-05-18T17:15:31.008Z,102720.00
2023-05-18T17:17:57.907Z,102717.00
2023-05-18T17:20:24.760Z,102727.00
2023-05-18T17:22:53.917Z,102716.00
2023-05-18T17:25:20.764Z,102721.00
2023-05-18T17:27:47.581Z,102720.00
2023-05-18T17:30:14.584Z,102725.00
2023-05-18T17:32:41.346Z,102713.00
2023-05-18T17:35:13.328Z,102716.00
2023-05-18T17:37:41.471Z,102718.00
2023-05-18T17:40:09.796Z,102716.00
2023-05-18T17:42:36.967Z,102709.00
2023-05-18T17:45:04.103Z,102712.00
2023-05-18T17:47:30.875Z,102708.00
2023-05-18T17:50:00.485Z,102712.00
2023-05-18T17:52:27.170Z,102717.00
2023-05-18T17:54:53.919Z,102716.00
2023-05-18T17:57:23.137Z,102720.00
2023-05-18T17:59:52.373Z,102709.00
2023-05-18T18:02:19.058Z,102719.00
2023-05-18T18:04:45.814Z,102717.00
2023-05-18T18:07:15.072Z,102716.00
2023-05-18T18:09:43.891Z,102717.00
2023-05-18T18:12:12.836Z,102713.00
2023-05-18T18:14:41.825Z,102721.00
2023-05-18T18:17:11.310Z,102723.00
2023-05-18T18:19:40.242Z,102720.00
2023-05-18T18:22:07.131Z,102717.00
2023-05-18T18:24:33.851Z,102720.00
2023-05-18T18:27:01.146Z,102718.00
2023-05-18T18:29:31.168Z,102724.00
2023-05-18T18:31:57.876Z,102718.00
2023-05-18T18:34:24.553Z,102714.00
2023-05-18T18:36:53.717Z,102716.00
2023-05-18T18:39:20.631Z,102710.00
2023-05-18T18:41:47.198Z,102717.00
2023-05-18T18:44:13.867Z,102725.00
2023-05-18T18:46:40.922Z,102715.00
2023-05-18T18:49:07.612Z,102727.00
2023-05-18T18:51:36.524Z,102730.00
2023-05-18T18:54:05.869Z,102729.00
2023-05-18T18:56:32.621Z,102727.00
2023-05-18T18:58:59.394Z,102726.00
2023-05-18T19:01:26.272Z,102726.00
2023-05-18T19:03:52.981Z,102722.00
2023-05-18T19:06:20.271Z,102718.00
2023-05-18T19:08:47.038Z,102718.00
2023-05-18T19:11:13.855Z,102724.00
2023-05-18T19:13:42.875Z,102723.00
2023-05-18T19:16:10.284Z,102732.00
2023-05-18T19:18:37.484Z,102727.00
2023-05-18T19:21:06.632Z,102727.00
2023-05-18T19:23:33.580Z,102729.00
2023-05-18T19:26:02.330Z,102724.00
2023-05-18T19:28:29.328Z,102734.00
2023-05-18T19:30:56.272Z,102732.00
2023-05-18T19:33:23.235Z,102744.00
2023-05-18T19:35:51.748Z,102735.00
2023-05-18T19:38:18.712Z,102734.00
2023-05-18T19:40:47.559Z,102735.00
2023-05-18T19:43:14.254Z,102733.00
2023-05-18T19:45:41.111Z,102736.00
2023-05-18T19:48:10.199Z,102735.00
2023-05-18T19:50:36.962Z,102744.00
2023-05-18T19:53:05.941Z,102749.00
2023-05-18T19:55:32.847Z,102742.00
2023-05-18T19:57:59.748Z,102748.00
2023-05-18T20:00:27.659Z,102756.00
2023-05-18T20:02:56.793Z,102753.00
2023-05-18T20:05:25.580Z,102742.00
2023-05-18T20:07:52.481Z,102745.00
2023-05-18T20:10:21.561Z,102750.00
2023-05-18T20:12:51.188Z,102741.00
2023-05-18T20:15:19.008Z,102751.00
2023-05-18T20:17:46.108Z,102743.00
2023-05-18T20:20:12.982Z,102749.00
2023-05-18T20:22:42.017Z,102753.00
2023-05-18T20:25:09.389Z,102747.00
2023-05-18T20:27:36.228Z,102747.00
2023-05-18T20:30:05.396Z,102751.00
2023-05-18T20:32:34.339Z,102761.00
2023-05-18T20:35:01.077Z,102756.00
2023-05-18T20:37:27.837Z,102758.00
2023-05-18T20:39:57.379Z,102757.00
2023-05-18T20:42:30.083Z,102760.00
2023-05-18T20:44:59.054Z,102764.00
2023-05-18T20:47:25.817Z,102761.00
2023-05-18T20:49:54.873Z,102763.00
2023-05-18T20:52:21.560Z,102767.00
2023-05-18T20:54:50.410Z,102773.00
2023-05-18T20:57:21.963Z,102780.00
2023-05-18T20:59:51.587Z,102767.00
2023-05-18T21:02:19.666Z,102768.00
2023-05-18T21:04:49.646Z,102768.00
2023-05-18T21:07:18.675Z,102760.00
2023-05-18T21:09:45.661Z,102773.00
2023-05-18T21:12:12.312Z,102770.00
2023-05-18T21:14:39.102Z,102766.00
2023-05-18T21:17:08.252Z,102767.00
2023-05-18T21:19:34.974Z,102762.00
2023-05-18T21:22:01.672Z,102773.00
2023-05-18T21:24:30.932Z,102775.00
2023-05-18T21:26:57.837Z,102771.00
2023-05-18T21:29:26.985Z,102775.00
2023-05-18T21:31:53.757Z,102773.00
2023-05-18T21:34:20.552Z,102777.00
2023-05-18T21:36:47.392Z,102780.00
2023-05-18T21:39:14.238Z,102773.00
2023-05-18T21:41:44.552Z,102772.00
2023-05-18T21:44:11.377Z,102778.00
2023-05-18T21:46:38.258Z,102770.00
2023-05-18T21:49:06.538Z,102779.00
2023-05-18T21:51:33.422Z,102772.00
2023-05-18T21:54:01.535Z,102774.00
2023-05-18T21:56:29.020Z,102765.00
2023-05-18T21:58:56.313Z,102768.00
2023-05-18T22:01:24.108Z,102770.00
2023-05-18T22:03:51.573Z,102762.00
2023-05-18T22:06:18.577Z,102762.00
2023-05-18T22:08:48.111Z,102758.00
2023-05-18T22:11:15.081Z,102759.00
2023-05-18T22:13:41.892Z,102757.00
2023-05-18T22:16:08.767Z,102762.00
2023-05-18T22:18:35.520Z,102763.00
2023-05-18T22:21:02.247Z,102754.00
2023-05-18T22:23:31.415Z,102761.00
2023-05-18T22:25:58.207Z,102763.00
2023-05-18T22:28:27.504Z,102762.00
2023-05-18T22:30:56.517Z,102757.00
2023-05-18T22:33:25.679Z,102762.00
2023-05-18T22:35:52.448Z,102759.00
2023-05-18T22:38:19.320Z,102764.00
2023-05-18T22:40:49.734Z,102760.00
2023-05-18T22:43:16.577Z,102759.00
2023-05-18T22:45:45.529Z,102758.00
2023-05-18T22:48:12.346Z,102761.00
2023-05-18T22:50:39.089Z,102760.00
2023-05-18T22:53:10.445Z,102754.00
2023-05-18T22:55:41.858Z,102751.00
2023-05-18T22:58:08.554Z,102758.00
2023-05-18T23:00:35.454Z,102746.00
2023-05-18T23:03:04.458Z,102747.00
2023-05-18T23:05:33.950Z,102745.00
2023-05-18T23:08:02.798Z,102740.00
2023-05-18T23:10:29.779Z,102740.00
2023-05-18T23:12:58.560Z,102735.00
2023-05-18T23:15:25.880Z,102735.00
2023-05-18T23:17:55.484Z,102730.00
2023-05-18T23:20:25.535Z,102725.00
2023-05-18T23:22:54.546Z,102725.00
2023-05-18T23:25:23.696Z,102718.00
2023-05-18T23:27:50.509Z,102721.00
2023-05-18T23:30:19.336Z,102723.00
2023-05-18T23:32:48.992Z,102713.00
2023-05-18T23:35:16.408Z,102717.00
2023-05-18T23:37:48.262Z,102717.00
2023-05-18T23:40:18.026Z,102722.00
2023-05-18T23:42:45.217Z,102710.00
2023-05-18T23:45:12.730Z,102717.00
2023-05-18T23:47:39.857Z,102717.00
2023-05-18T23:50:07.376Z,102713.00
2023-05-18T23:52:34.945Z,102719.00
2023-05-18T23:55:05.828Z,102720.00
2023-05-18T23:57:33.200Z,102715.00
